Terminal Aerodrome Forecast
Issued by NWS

Home | Current Version | Previous Version | Text Only | Print | Product List | Glossary On
Versions: 1 2 3 4 5 6 7 8 9 10 11 12 13 14 15 16 17
112
FTUS42 KMLB 061735
TAFSFB
TAF
KSFB 061735Z 0618/0718 34008KT P6SM BKN060
      TEMPO 0618/0621 -RA BKN040
     FM062100 35008KT P6SM VCSH SCT025 BKN035
      TEMPO 0621/0624 4SM SHRA BKN012
     FM070000 34012KT P6SM BKN020
      TEMPO 0700/0702 5SM SHRA BKN012
     FM070300 32014G21KT P6SM VCSH BKN012
     FM070800 32018G26KT P6SM BKN010
     FM071300 32021G29KT P6SM BKN015=

USA.gov is the U.S. government's official web portal to all federal, state and local government web resources and services.